sensor_id;sensor_type;location;lat;lon;timestamp;temperature;humidity
2957;DHT22;1488;51.548;7.222;2023-07-28T00:00:11;24.10;95.00
2957;DHT22;1488;51.548;7.222;2023-07-28T00:02:38;24.10;94.90
2957;DHT22;1488;51.548;7.222;2023-07-28T00:05:05;24.10;94.90
2957;DHT22;1488;51.548;7.222;2023-07-28T00:07:34;24.10;95.10
2957;DHT22;1488;51.548;7.222;2023-07-28T00:10:02;24.10;95.00
2957;DHT22;1488;51.548;7.222;2023-07-28T00:12:29;24.10;95.00
2957;DHT22;1488;51.548;7.222;2023-07-28T00:14:56;24.10;95.00
2957;DHT22;1488;51.548;7.222;2023-07-28T00:17:24;24.10;95.10
2957;DHT22;1488;51.548;7.222;2023-07-28T00:19:51;24.10;95.10
2957;DHT22;1488;51.548;7.222;2023-07-28T00:22:18;24.10;95.10
2957;DHT22;1488;51.548;7.222;2023-07-28T00:24:46;24.10;95.10
2957;DHT22;1488;51.548;7.222;2023-07-28T00:27:13;24.10;95.10
2957;DHT22;1488;51.548;7.222;2023-07-28T00:29:40;24.10;95.20
2957;DHT22;1488;51.548;7.222;2023-07-28T00:32:07;24.10;95.20
2957;DHT22;1488;51.548;7.222;2023-07-28T00:34:34;24.10;95.20
2957;DHT22;1488;51.548;7.222;2023-07-28T00:37:01;24.10;95.20
2957;DHT22;1488;51.548;7.222;2023-07-28T00:39:28;24.10;95.30
2957;DHT22;1488;51.548;7.222;2023-07-28T00:41:57;24.10;95.10
2957;DHT22;1488;51.548;7.222;2023-07-28T00:44:24;24.10;95.10
2957;DHT22;1488;51.548;7.222;2023-07-28T00:46:51;24.10;95.20
2957;DHT22;1488;51.548;7.222;2023-07-28T00:49:18;24.10;95.10
2957;DHT22;1488;51.548;7.222;2023-07-28T00:51:45;24.10;95.10
2957;DHT22;1488;51.548;7.222;2023-07-28T00:54:12;24.10;95.10
2957;DHT22;1488;51.548;7.222;2023-07-28T00:56:39;24.10;95.10
2957;DHT22;1488;51.548;7.222;2023-07-28T00:59:08;24.10;95.00
2957;DHT22;1488;51.548;7.222;2023-07-28T01:01:35;24.10;95.00
2957;DHT22;1488;51.548;7.222;2023-07-28T01:04:02;24.00;94.90
2957;DHT22;1488;51.548;7.222;2023-07-28T01:06:37;24.10;95.00
2957;DHT22;1488;51.548;7.222;2023-07-28T01:09:11;24.10;95.00
2957;DHT22;1488;51.548;7.222;2023-07-28T01:11:52;24.00;95.00
2957;DHT22;1488;51.548;7.222;2023-07-28T01:14:21;24.10;95.00
2957;DHT22;1488;51.548;7.222;2023-07-28T01:16:48;24.00;95.00
2957;DHT22;1488;51.548;7.222;2023-07-28T01:19:16;24.00;95.00
2957;DHT22;1488;51.548;7.222;2023-07-28T01:21:46;24.00;95.00
2957;DHT22;1488;51.548;7.222;2023-07-28T01:24:19;24.00;95.00
2957;DHT22;1488;51.548;7.222;2023-07-28T01:26:49;24.00;95.00
2957;DHT22;1488;51.548;7.222;2023-07-28T01:29:17;24.00;95.00
2957;DHT22;1488;51.548;7.222;2023-07-28T01:31:46;24.00;94.90
2957;DHT22;1488;51.548;7.222;2023-07-28T01:34:14;24.00;95.10
2957;DHT22;1488;51.548;7.222;2023-07-28T01:36:40;24.00;95.10
2957;DHT22;1488;51.548;7.222;2023-07-28T01:39:07;24.00;95.00
2957;DHT22;1488;51.548;7.222;2023-07-28T01:41:34;24.00;94.90
2957;DHT22;1488;51.548;7.222;2023-07-28T01:44:03;24.00;94.90
2957;DHT22;1488;51.548;7.222;2023-07-28T01:46:30;24.00;94.90
2957;DHT22;1488;51.548;7.222;2023-07-28T01:48:57;24.00;95.00
2957;DHT22;1488;51.548;7.222;2023-07-28T01:51:24;24.00;95.00
2957;DHT22;1488;51.548;7.222;2023-07-28T01:53:51;24.00;95.30
2957;DHT22;1488;51.548;7.222;2023-07-28T01:56:18;24.10;95.00
2957;DHT22;1488;51.548;7.222;2023-07-28T01:58:45;24.00;94.90
2957;DHT22;1488;51.548;7.222;2023-07-28T02:01:14;24.00;94.80
2957;DHT22;1488;51.548;7.222;2023-07-28T02:03:41;24.00;94.80
2957;DHT22;1488;51.548;7.222;2023-07-28T02:06:07;23.90;94.70
2957;DHT22;1488;51.548;7.222;2023-07-28T02:08:34;24.00;94.80
2957;DHT22;1488;51.548;7.222;2023-07-28T02:11:01;24.00;94.70
2957;DHT22;1488;51.548;7.222;2023-07-28T02:13:28;24.00;94.70
2957;DHT22;1488;51.548;7.222;2023-07-28T02:15:55;24.00;94.70
2957;DHT22;1488;51.548;7.222;2023-07-28T02:18:24;23.90;94.60
2957;DHT22;1488;51.548;7.222;2023-07-28T02:20:51;24.00;94.70
2957;DHT22;1488;51.548;7.222;2023-07-28T02:23:17;24.00;94.70
2957;DHT22;1488;51.548;7.222;2023-07-28T02:25:45;24.00;94.60
2957;DHT22;1488;51.548;7.222;2023-07-28T02:28:12;24.00;94.70
2957;DHT22;1488;51.548;7.222;2023-07-28T02:30:39;24.00;94.60
2957;DHT22;1488;51.548;7.222;2023-07-28T02:33:06;24.00;94.70
2957;DHT22;1488;51.548;7.222;2023-07-28T02:35:34;24.00;94.70
2957;DHT22;1488;51.548;7.222;2023-07-28T02:38:02;24.00;94.80
2957;DHT22;1488;51.548;7.222;2023-07-28T02:40:29;24.00;94.90
2957;DHT22;1488;51.548;7.222;2023-07-28T02:42:56;24.00;94.80
2957;DHT22;1488;51.548;7.222;2023-07-28T02:45:24;24.00;94.90
2957;DHT22;1488;51.548;7.222;2023-07-28T02:47:51;24.00;94.80
2957;DHT22;1488;51.548;7.222;2023-07-28T02:50:18;24.00;94.80
2957;DHT22;1488;51.548;7.222;2023-07-28T02:52:46;24.00;94.80
2957;DHT22;1488;51.548;7.222;2023-07-28T02:55:13;24.00;94.80
2957;DHT22;1488;51.548;7.222;2023-07-28T02:57:41;23.90;94.70
2957;DHT22;1488;51.548;7.222;2023-07-28T03:00:08;23.90;94.70
2957;DHT22;1488;51.548;7.222;2023-07-28T03:02:37;24.00;94.70
2957;DHT22;1488;51.548;7.222;2023-07-28T03:05:04;24.00;94.80
2957;DHT22;1488;51.548;7.222;2023-07-28T03:07:31;24.00;94.70
2957;DHT22;1488;51.548;7.222;2023-07-28T03:10:00;24.00;94.80
2957;DHT22;1488;51.548;7.222;2023-07-28T03:12:27;23.90;94.80
2957;DHT22;1488;51.548;7.222;2023-07-28T03:14:54;23.90;94.70
2957;DHT22;1488;51.548;7.222;2023-07-28T03:17:21;24.00;94.80
2957;DHT22;1488;51.548;7.222;2023-07-28T03:19:48;24.00;94.80
2957;DHT22;1488;51.548;7.222;2023-07-28T03:22:15;24.00;94.80
2957;DHT22;1488;51.548;7.222;2023-07-28T03:24:42;23.90;94.80
2957;DHT22;1488;51.548;7.222;2023-07-28T03:27:13;24.00;94.80
2957;DHT22;1488;51.548;7.222;2023-07-28T03:29:40;24.00;94.80
2957;DHT22;1488;51.548;7.222;2023-07-28T03:32:07;24.00;94.70
2957;DHT22;1488;51.548;7.222;2023-07-28T03:34:33;24.00;94.70
2957;DHT22;1488;51.548;7.222;2023-07-28T03:37:00;24.00;94.80
2957;DHT22;1488;51.548;7.222;2023-07-28T03:39:28;23.90;94.80
2957;DHT22;1488;51.548;7.222;2023-07-28T03:41:56;24.00;94.90
2957;DHT22;1488;51.548;7.222;2023-07-28T03:44:25;24.00;94.90
2957;DHT22;1488;51.548;7.222;2023-07-28T03:46:52;24.00;94.90
2957;DHT22;1488;51.548;7.222;2023-07-28T03:49:19;24.00;94.90
2957;DHT22;1488;51.548;7.222;2023-07-28T03:55:08;24.00;95.00
2957;DHT22;1488;51.548;7.222;2023-07-28T03:57:35;23.90;95.00
2957;DHT22;1488;51.548;7.222;2023-07-28T04:00:05;23.90;95.00
2957;DHT22;1488;51.548;7.222;2023-07-28T04:02:33;23.90;94.90
2957;DHT22;1488;51.548;7.222;2023-07-28T04:05:00;23.90;94.90
2957;DHT22;1488;51.548;7.222;2023-07-28T04:07:26;23.90;94.90
2957;DHT22;1488;51.548;7.222;2023-07-28T04:09:53;23.90;94.90
2957;DHT22;1488;51.548;7.222;2023-07-28T04:12:20;23.90;94.90
2957;DHT22;1488;51.548;7.222;2023-07-28T04:14:47;23.90;94.90
2957;DHT22;1488;51.548;7.222;2023-07-28T04:17:15;24.10;94.90
2957;DHT22;1488;51.548;7.222;2023-07-28T04:19:42;23.90;94.80
2957;DHT22;1488;51.548;7.222;2023-07-28T04:22:09;24.00;94.80
2957;DHT22;1488;51.548;7.222;2023-07-28T04:24:36;24.00;94.90
2957;DHT22;1488;51.548;7.222;2023-07-28T04:27:03;24.00;95.20
2957;DHT22;1488;51.548;7.222;2023-07-28T04:29:30;24.00;94.90
2957;DHT22;1488;51.548;7.222;2023-07-28T04:31:57;23.90;94.90
2957;DHT22;1488;51.548;7.222;2023-07-28T04:34:26;23.90;94.90
2957;DHT22;1488;51.548;7.222;2023-07-28T04:36:53;23.90;94.90
2957;DHT22;1488;51.548;7.222;2023-07-28T04:39:21;23.90;94.80
2957;DHT22;1488;51.548;7.222;2023-07-28T04:41:48;23.90;94.80
2957;DHT22;1488;51.548;7.222;2023-07-28T04:44:15;23.90;94.90
2957;DHT22;1488;51.548;7.222;2023-07-28T04:46:42;23.90;94.80
2957;DHT22;1488;51.548;7.222;2023-07-28T04:49:08;23.90;94.80
2957;DHT22;1488;51.548;7.222;2023-07-28T04:51:37;24.00;94.80
2957;DHT22;1488;51.548;7.222;2023-07-28T04:54:04;23.90;94.90
2957;DHT22;1488;51.548;7.222;2023-07-28T04:56:31;24.00;95.00
2957;DHT22;1488;51.548;7.222;2023-07-28T04:58:58;24.00;95.00
2957;DHT22;1488;51.548;7.222;2023-07-28T05:01:25;24.00;95.10
2957;DHT22;1488;51.548;7.222;2023-07-28T05:03:52;24.00;95.20
2957;DHT22;1488;51.548;7.222;2023-07-28T05:06:19;24.00;95.20
2957;DHT22;1488;51.548;7.222;2023-07-28T05:08:48;23.90;95.10
2957;DHT22;1488;51.548;7.222;2023-07-28T05:11:14;24.00;95.10
2957;DHT22;1488;51.548;7.222;2023-07-28T05:13:41;24.00;95.20
2957;DHT22;1488;51.548;7.222;2023-07-28T05:16:09;24.00;95.20
2957;DHT22;1488;51.548;7.222;2023-07-28T05:18:36;24.00;95.20
2957;DHT22;1488;51.548;7.222;2023-07-28T05:21:03;24.00;95.30
2957;DHT22;1488;51.548;7.222;2023-07-28T05:23:30;24.00;95.50
2957;DHT22;1488;51.548;7.222;2023-07-28T05:25:59;24.00;95.40
2957;DHT22;1488;51.548;7.222;2023-07-28T05:28:26;23.90;95.40
2957;DHT22;1488;51.548;7.222;2023-07-28T05:30:53;24.00;95.50
2957;DHT22;1488;51.548;7.222;2023-07-28T05:33:19;24.00;95.50
2957;DHT22;1488;51.548;7.222;2023-07-28T05:35:46;24.00;95.50
2957;DHT22;1488;51.548;7.222;2023-07-28T05:38:13;24.00;95.70
2957;DHT22;1488;51.548;7.222;2023-07-28T05:40:40;24.00;95.70
2957;DHT22;1488;51.548;7.222;2023-07-28T05:43:09;24.00;95.60
2957;DHT22;1488;51.548;7.222;2023-07-28T05:45:35;24.00;95.50
2957;DHT22;1488;51.548;7.222;2023-07-28T05:51:25;23.90;97.00
2957;DHT22;1488;51.548;7.222;2023-07-28T05:53:51;23.90;98.40
2957;DHT22;1488;51.548;7.222;2023-07-28T05:56:18;23.90;99.00
2957;DHT22;1488;51.548;7.222;2023-07-28T05:58:47;23.90;99.20
2957;DHT22;1488;51.548;7.222;2023-07-28T06:01:14;23.90;99.60
2957;DHT22;1488;51.548;7.222;2023-07-28T06:03:41;24.00;99.90
2957;DHT22;1488;51.548;7.222;2023-07-28T06:06:08;23.90;99.90
2957;DHT22;1488;51.548;7.222;2023-07-28T06:08:35;23.90;99.90
2957;DHT22;1488;51.548;7.222;2023-07-28T06:11:03;23.80;99.90
2957;DHT22;1488;51.548;7.222;2023-07-28T06:13:31;23.80;99.90
2957;DHT22;1488;51.548;7.222;2023-07-28T06:15:59;23.80;99.90
2957;DHT22;1488;51.548;7.222;2023-07-28T06:18:27;23.80;99.90
2957;DHT22;1488;51.548;7.222;2023-07-28T06:20:54;23.80;99.90
2957;DHT22;1488;51.548;7.222;2023-07-28T06:23:21;23.80;99.90
2957;DHT22;1488;51.548;7.222;2023-07-28T06:25:48;23.90;99.90
2957;DHT22;1488;51.548;7.222;2023-07-28T06:28:14;23.80;99.90
2957;DHT22;1488;51.548;7.222;2023-07-28T06:30:42;23.90;99.90
2957;DHT22;1488;51.548;7.222;2023-07-28T06:33:10;23.90;99.90
2957;DHT22;1488;51.548;7.222;2023-07-28T06:35:37;23.90;99.90
2957;DHT22;1488;51.548;7.222;2023-07-28T06:38:05;23.80;99.90
2957;DHT22;1488;51.548;7.222;2023-07-28T06:40:31;23.80;99.90
2957;DHT22;1488;51.548;7.222;2023-07-28T06:42:58;23.80;99.90
2957;DHT22;1488;51.548;7.222;2023-07-28T06:45:25;23.80;99.90
2957;DHT22;1488;51.548;7.222;2023-07-28T06:47:52;23.80;99.90
2957;DHT22;1488;51.548;7.222;2023-07-28T06:50:20;23.80;99.90
2957;DHT22;1488;51.548;7.222;2023-07-28T06:52:47;23.80;99.90
2957;DHT22;1488;51.548;7.222;2023-07-28T06:55:15;23.80;99.90
2957;DHT22;1488;51.548;7.222;2023-07-28T06:57:42;23.80;99.90
2957;DHT22;1488;51.548;7.222;2023-07-28T07:00:10;23.70;99.90
2957;DHT22;1488;51.548;7.222;2023-07-28T07:02:37;23.80;99.90
2957;DHT22;1488;51.548;7.222;2023-07-28T07:05:04;23.80;99.90
2957;DHT22;1488;51.548;7.222;2023-07-28T07:07:33;23.90;99.90
2957;DHT22;1488;51.548;7.222;2023-07-28T07:10:00;23.90;99.90
2957;DHT22;1488;51.548;7.222;2023-07-28T07:29:58;23.90;99.90
2957;DHT22;1488;51.548;7.222;2023-07-28T07:32:25;23.90;99.90
2957;DHT22;1488;51.548;7.222;2023-07-28T07:34:52;23.90;99.90
2957;DHT22;1488;51.548;7.222;2023-07-28T07:37:19;23.90;99.90
2957;DHT22;1488;51.548;7.222;2023-07-28T07:39:46;23.90;99.90
2957;DHT22;1488;51.548;7.222;2023-07-28T07:42:13;23.90;99.90
2957;DHT22;1488;51.548;7.222;2023-07-28T07:44:40;23.90;99.90
2957;DHT22;1488;51.548;7.222;2023-07-28T07:47:15;23.90;99.90
2957;DHT22;1488;51.548;7.222;2023-07-28T07:49:42;23.90;99.90
2957;DHT22;1488;51.548;7.222;2023-07-28T07:52:09;23.90;99.90
2957;DHT22;1488;51.548;7.222;2023-07-28T07:54:36;23.90;99.90
2957;DHT22;1488;51.548;7.222;2023-07-28T07:57:04;23.90;99.80
2957;DHT22;1488;51.548;7.222;2023-07-28T07:59:31;24.00;99.60
2957;DHT22;1488;51.548;7.222;2023-07-28T08:01:59;24.00;99.30
2957;DHT22;1488;51.548;7.222;2023-07-28T08:04:29;24.00;99.30
2957;DHT22;1488;51.548;7.222;2023-07-28T08:06:56;24.00;99.20
2957;DHT22;1488;51.548;7.222;2023-07-28T08:09:23;24.00;99.00
2957;DHT22;1488;51.548;7.222;2023-07-28T08:11:50;24.00;99.00
2957;DHT22;1488;51.548;7.222;2023-07-28T08:14:18;24.00;99.10
2957;DHT22;1488;51.548;7.222;2023-07-28T08:16:45;24.00;99.10
2957;DHT22;1488;51.548;7.222;2023-07-28T08:19:11;24.00;99.20
2957;DHT22;1488;51.548;7.222;2023-07-28T08:21:40;24.00;99.60
2957;DHT22;1488;51.548;7.222;2023-07-28T08:24:07;24.10;99.10
2957;DHT22;1488;51.548;7.222;2023-07-28T08:26:33;24.10;99.00
2957;DHT22;1488;51.548;7.222;2023-07-28T08:29:00;24.10;98.90
2957;DHT22;1488;51.548;7.222;2023-07-28T08:31:27;24.10;98.70
2957;DHT22;1488;51.548;7.222;2023-07-28T08:33:54;24.10;98.60
2957;DHT22;1488;51.548;7.222;2023-07-28T08:36:20;24.10;98.50
2957;DHT22;1488;51.548;7.222;2023-07-28T08:38:49;24.10;98.50
2957;DHT22;1488;51.548;7.222;2023-07-28T08:41:15;24.10;98.40
2957;DHT22;1488;51.548;7.222;2023-07-28T08:43:42;24.10;98.60
2957;DHT22;1488;51.548;7.222;2023-07-28T08:46:09;24.10;98.50
2957;DHT22;1488;51.548;7.222;2023-07-28T08:48:36;24.10;98.50
2957;DHT22;1488;51.548;7.222;2023-07-28T08:51:03;24.10;98.60
2957;DHT22;1488;51.548;7.222;2023-07-28T08:53:30;24.10;98.50
2957;DHT22;1488;51.548;7.222;2023-07-28T08:55:59;24.10;98.60
2957;DHT22;1488;51.548;7.222;2023-07-28T08:58:26;24.10;98.60
2957;DHT22;1488;51.548;7.222;2023-07-28T09:00:53;24.10;98.50
2957;DHT22;1488;51.548;7.222;2023-07-28T09:03:20;24.10;98.40
2957;DHT22;1488;51.548;7.222;2023-07-28T09:05:48;24.10;98.20
2957;DHT22;1488;51.548;7.222;2023-07-28T09:08:15;24.10;98.20
2957;DHT22;1488;51.548;7.222;2023-07-28T09:10:43;24.10;98.10
2957;DHT22;1488;51.548;7.222;2023-07-28T09:13:12;24.10;98.00
2957;DHT22;1488;51.548;7.222;2023-07-28T09:15:39;24.20;98.50
2957;DHT22;1488;51.548;7.222;2023-07-28T09:18:08;24.10;97.90
2957;DHT22;1488;51.548;7.222;2023-07-28T09:20:37;24.10;97.80
2957;DHT22;1488;51.548;7.222;2023-07-28T09:23:04;24.10;97.80
2957;DHT22;1488;51.548;7.222;2023-07-28T09:25:33;24.20;97.90
2957;DHT22;1488;51.548;7.222;2023-07-28T09:28:01;24.20;97.90
2957;DHT22;1488;51.548;7.222;2023-07-28T09:30:45;24.20;98.30
2957;DHT22;1488;51.548;7.222;2023-07-28T09:33:12;24.20;97.90
2957;DHT22;1488;51.548;7.222;2023-07-28T09:35:48;24.20;97.70
2957;DHT22;1488;51.548;7.222;2023-07-28T09:38:15;24.20;98.20
2957;DHT22;1488;51.548;7.222;2023-07-28T09:40:43;24.20;97.70
2957;DHT22;1488;51.548;7.222;2023-07-28T09:43:10;24.20;97.70
2957;DHT22;1488;51.548;7.222;2023-07-28T09:45:40;24.20;97.70
2957;DHT22;1488;51.548;7.222;2023-07-28T09:48:09;24.20;97.60
2957;DHT22;1488;51.548;7.222;2023-07-28T09:50:39;24.30;97.60
2957;DHT22;1488;51.548;7.222;2023-07-28T09:53:08;24.30;97.50
2957;DHT22;1488;51.548;7.222;2023-07-28T09:55:38;24.30;97.50
2957;DHT22;1488;51.548;7.222;2023-07-28T09:58:08;24.30;97.40
2957;DHT22;1488;51.548;7.222;2023-07-28T10:00:35;24.30;97.40
2957;DHT22;1488;51.548;7.222;2023-07-28T10:03:05;24.30;97.40
2957;DHT22;1488;51.548;7.222;2023-07-28T10:05:33;24.30;97.40
2957;DHT22;1488;51.548;7.222;2023-07-28T10:08:01;24.30;97.50
2957;DHT22;1488;51.548;7.222;2023-07-28T10:10:29;24.30;97.40
2957;DHT22;1488;51.548;7.222;2023-07-28T10:12:58;24.30;97.50
2957;DHT22;1488;51.548;7.222;2023-07-28T10:15:28;24.30;97.40
2957;DHT22;1488;51.548;7.222;2023-07-28T10:17:56;24.30;97.60
2957;DHT22;1488;51.548;7.222;2023-07-28T10:20:30;24.40;97.40
2957;DHT22;1488;51.548;7.222;2023-07-28T10:23:04;24.30;97.40
2957;DHT22;1488;51.548;7.222;2023-07-28T10:25:33;24.40;97.50
2957;DHT22;1488;51.548;7.222;2023-07-28T10:28:01;24.50;97.60
2957;DHT22;1488;51.548;7.222;2023-07-28T10:30:35;24.30;97.50
2957;DHT22;1488;51.548;7.222;2023-07-28T10:33:03;24.40;97.60
2957;DHT22;1488;51.548;7.222;2023-07-28T10:35:31;24.40;97.50
2957;DHT22;1488;51.548;7.222;2023-07-28T10:38:32;24.30;97.40
2957;DHT22;1488;51.548;7.222;2023-07-28T10:41:13;24.30;97.50
2957;DHT22;1488;51.548;7.222;2023-07-28T10:43:41;24.30;97.60
2957;DHT22;1488;51.548;7.222;2023-07-28T10:46:09;24.30;97.50
2957;DHT22;1488;51.548;7.222;2023-07-28T10:48:36;24.30;97.60
2957;DHT22;1488;51.548;7.222;2023-07-28T10:51:06;24.30;97.70
2957;DHT22;1488;51.548;7.222;2023-07-28T10:53:33;24.30;97.80
2957;DHT22;1488;51.548;7.222;2023-07-28T10:56:01;24.40;97.70
2957;DHT22;1488;51.548;7.222;2023-07-28T10:58:28;24.30;97.80
2957;DHT22;1488;51.548;7.222;2023-07-28T11:00:55;24.30;97.80
2957;DHT22;1488;51.548;7.222;2023-07-28T11:03:22;24.30;97.70
2957;DHT22;1488;51.548;7.222;2023-07-28T11:05:49;24.30;97.70
2957;DHT22;1488;51.548;7.222;2023-07-28T11:08:18;24.30;97.60
2957;DHT22;1488;51.548;7.222;2023-07-28T11:10:45;24.50;97.70
2957;DHT22;1488;51.548;7.222;2023-07-28T11:13:13;24.40;97.70
2957;DHT22;1488;51.548;7.222;2023-07-28T11:15:40;24.40;97.70
2957;DHT22;1488;51.548;7.222;2023-07-28T11:18:07;24.40;97.60
2957;DHT22;1488;51.548;7.222;2023-07-28T11:20:35;24.40;97.60
2957;DHT22;1488;51.548;7.222;2023-07-28T11:23:04;24.40;97.70
2957;DHT22;1488;51.548;7.222;2023-07-28T11:25:33;24.40;97.70
2957;DHT22;1488;51.548;7.222;2023-07-28T11:28:01;24.40;97.70
2957;DHT22;1488;51.548;7.222;2023-07-28T11:30:32;24.40;97.80
2957;DHT22;1488;51.548;7.222;2023-07-28T11:33:03;24.40;97.80
2957;DHT22;1488;51.548;7.222;2023-07-28T11:35:30;24.40;97.90
2957;DHT22;1488;51.548;7.222;2023-07-28T11:37:57;24.40;98.00
2957;DHT22;1488;51.548;7.222;2023-07-28T11:40:24;24.40;98.10
2957;DHT22;1488;51.548;7.222;2023-07-28T11:42:54;24.40;98.00
2957;DHT22;1488;51.548;7.222;2023-07-28T11:45:22;24.40;98.10
2957;DHT22;1488;51.548;7.222;2023-07-28T11:47:54;24.40;98.30
2957;DHT22;1488;51.548;7.222;2023-07-28T11:50:26;24.50;98.50
2957;DHT22;1488;51.548;7.222;2023-07-28T11:52:53;24.50;98.70
2957;DHT22;1488;51.548;7.222;2023-07-28T11:55:20;24.60;98.70
2957;DHT22;1488;51.548;7.222;2023-07-28T11:57:48;24.50;98.50
2957;DHT22;1488;51.548;7.222;2023-07-28T12:00:31;24.50;98.60
2957;DHT22;1488;51.548;7.222;2023-07-28T16:33:58;24.70;98.70
2957;DHT22;1488;51.548;7.222;2023-07-28T16:36:25;24.70;98.70
2957;DHT22;1488;51.548;7.222;2023-07-28T16:38:52;24.70;98.40
2957;DHT22;1488;51.548;7.222;2023-07-28T16:41:19;24.70;98.50
2957;DHT22;1488;51.548;7.222;2023-07-28T16:43:46;24.70;98.50
2957;DHT22;1488;51.548;7.222;2023-07-28T16:46:12;24.70;98.60
2957;DHT22;1488;51.548;7.222;2023-07-28T16:48:39;24.70;98.60
2957;DHT22;1488;51.548;7.222;2023-07-28T16:51:07;24.70;98.70
2957;DHT22;1488;51.548;7.222;2023-07-28T16:53:34;24.60;98.60
2957;DHT22;1488;51.548;7.222;2023-07-28T16:56:01;24.60;98.70
2957;DHT22;1488;51.548;7.222;2023-07-28T16:58:27;24.60;98.80
2957;DHT22;1488;51.548;7.222;2023-07-28T17:00:54;24.70;98.90
2957;DHT22;1488;51.548;7.222;2023-07-28T17:03:22;24.60;98.80
2957;DHT22;1488;51.548;7.222;2023-07-28T17:05:49;24.60;98.80
2957;DHT22;1488;51.548;7.222;2023-07-28T17:08:17;24.60;99.00
2957;DHT22;1488;51.548;7.222;2023-07-28T17:10:44;24.60;99.00
2957;DHT22;1488;51.548;7.222;2023-07-28T17:13:11;24.60;99.00
2957;DHT22;1488;51.548;7.222;2023-07-28T17:15:38;24.60;98.90
2957;DHT22;1488;51.548;7.222;2023-07-28T17:18:04;24.60;99.10
2957;DHT22;1488;51.548;7.222;2023-07-28T17:20:31;24.60;99.30
2957;DHT22;1488;51.548;7.222;2023-07-28T17:22:58;24.60;98.90
2957;DHT22;1488;51.548;7.222;2023-07-28T17:25:26;24.60;98.90
2957;DHT22;1488;51.548;7.222;2023-07-28T17:27:53;24.60;98.80
2957;DHT22;1488;51.548;7.222;2023-07-28T17:30:20;24.60;98.90
2957;DHT22;1488;51.548;7.222;2023-07-28T17:32:47;24.60;98.90
2957;DHT22;1488;51.548;7.222;2023-07-28T17:35:14;24.60;98.90
2957;DHT22;1488;51.548;7.222;2023-07-28T17:37:40;24.60;99.00
2957;DHT22;1488;51.548;7.222;2023-07-28T17:40:08;24.60;98.80
2957;DHT22;1488;51.548;7.222;2023-07-28T17:42:36;24.60;99.10
2957;DHT22;1488;51.548;7.222;2023-07-28T17:45:04;24.60;99.00
2957;DHT22;1488;51.548;7.222;2023-07-28T17:47:32;24.60;99.10
2957;DHT22;1488;51.548;7.222;2023-07-28T17:50:03;24.60;99.40
2957;DHT22;1488;51.548;7.222;2023-07-28T17:52:30;24.60;99.50
2957;DHT22;1488;51.548;7.222;2023-07-28T17:54:57;24.60;99.30
2957;DHT22;1488;51.548;7.222;2023-07-28T17:57:24;24.60;99.40
2957;DHT22;1488;51.548;7.222;2023-07-28T17:59:52;24.50;99.30
2957;DHT22;1488;51.548;7.222;2023-07-28T18:02:18;24.60;99.30
2957;DHT22;1488;51.548;7.222;2023-07-28T18:04:46;24.60;99.50
2957;DHT22;1488;51.548;7.222;2023-07-28T18:07:12;24.60;99.50
2957;DHT22;1488;51.548;7.222;2023-07-28T18:09:40;24.60;99.40
2957;DHT22;1488;51.548;7.222;2023-07-28T18:12:07;24.70;99.50
2957;DHT22;1488;51.548;7.222;2023-07-28T18:14:34;24.60;99.40
2957;DHT22;1488;51.548;7.222;2023-07-28T18:17:02;24.60;99.40
2957;DHT22;1488;51.548;7.222;2023-07-28T18:19:28;24.60;99.50
2957;DHT22;1488;51.548;7.222;2023-07-28T18:21:55;24.60;99.60
2957;DHT22;1488;51.548;7.222;2023-07-28T18:24:22;24.60;99.50
2957;DHT22;1488;51.548;7.222;2023-07-28T18:26:49;24.50;99.40
2957;DHT22;1488;51.548;7.222;2023-07-28T18:29:15;24.50;99.50
2957;DHT22;1488;51.548;7.222;2023-07-28T18:31:42;24.50;99.50
2957;DHT22;1488;51.548;7.222;2023-07-28T18:34:10;24.50;99.50
2957;DHT22;1488;51.548;7.222;2023-07-28T18:36:37;24.50;99.50
2957;DHT22;1488;51.548;7.222;2023-07-28T18:39:04;24.50;99.50
2957;DHT22;1488;51.548;7.222;2023-07-28T18:41:31;24.50;99.50
2957;DHT22;1488;51.548;7.222;2023-07-28T18:43:58;24.50;99.50
2957;DHT22;1488;51.548;7.222;2023-07-28T18:46:25;24.50;99.40
2957;DHT22;1488;51.548;7.222;2023-07-28T18:48:51;24.50;99.40
2957;DHT22;1488;51.548;7.222;2023-07-28T18:51:20;24.60;99.50
2957;DHT22;1488;51.548;7.222;2023-07-28T18:53:47;24.50;99.40
2957;DHT22;1488;51.548;7.222;2023-07-28T18:56:16;24.50;99.40
2957;DHT22;1488;51.548;7.222;2023-07-28T18:58:43;24.50;99.30
2957;DHT22;1488;51.548;7.222;2023-07-28T19:01:10;24.50;99.30
2957;DHT22;1488;51.548;7.222;2023-07-28T19:03:36;24.50;99.30
2957;DHT22;1488;51.548;7.222;2023-07-28T19:06:04;24.50;99.30
2957;DHT22;1488;51.548;7.222;2023-07-28T19:08:32;24.50;99.30
2957;DHT22;1488;51.548;7.222;2023-07-28T19:10:59;24.60;99.40
2957;DHT22;1488;51.548;7.222;2023-07-28T19:13:26;24.50;99.20
2957;DHT22;1488;51.548;7.222;2023-07-28T19:15:53;24.50;99.20
2957;DHT22;1488;51.548;7.222;2023-07-28T19:18:20;24.60;99.20
2957;DHT22;1488;51.548;7.222;2023-07-28T19:20:48;24.50;99.10
2957;DHT22;1488;51.548;7.222;2023-07-28T19:23:15;24.50;99.10
2957;DHT22;1488;51.548;7.222;2023-07-28T19:25:43;24.50;99.20
2957;DHT22;1488;51.548;7.222;2023-07-28T19:28:12;24.70;99.30
2957;DHT22;1488;51.548;7.222;2023-07-28T19:30:40;24.50;99.20
2957;DHT22;1488;51.548;7.222;2023-07-28T19:33:07;24.50;99.10
2957;DHT22;1488;51.548;7.222;2023-07-28T19:35:34;24.60;99.30
2957;DHT22;1488;51.548;7.222;2023-07-28T19:38:01;24.50;99.10
2957;DHT22;1488;51.548;7.222;2023-07-28T19:40:28;24.50;99.10
2957;DHT22;1488;51.548;7.222;2023-07-28T19:42:56;24.50;99.10
2957;DHT22;1488;51.548;7.222;2023-07-28T19:45:23;24.50;99.10
2957;DHT22;1488;51.548;7.222;2023-07-28T19:47:50;24.50;99.20
2957;DHT22;1488;51.548;7.222;2023-07-28T19:50:17;24.50;99.20
2957;DHT22;1488;51.548;7.222;2023-07-28T19:52:44;24.50;99.20
2957;DHT22;1488;51.548;7.222;2023-07-28T19:55:11;24.60;99.30
2957;DHT22;1488;51.548;7.222;2023-07-28T19:57:38;24.50;99.10
2957;DHT22;1488;51.548;7.222;2023-07-28T20:00:08;24.50;99.10
2957;DHT22;1488;51.548;7.222;2023-07-28T20:02:35;24.50;99.10
2957;DHT22;1488;51.548;7.222;2023-07-28T20:05:03;24.50;99.20
2957;DHT22;1488;51.548;7.222;2023-07-28T20:07:30;24.50;99.20
2957;DHT22;1488;51.548;7.222;2023-07-28T20:09:57;24.50;99.30
2957;DHT22;1488;51.548;7.222;2023-07-28T20:12:24;24.50;99.20
2957;DHT22;1488;51.548;7.222;2023-07-28T20:14:51;24.50;99.20
2957;DHT22;1488;51.548;7.222;2023-07-28T20:17:20;24.50;99.20
2957;DHT22;1488;51.548;7.222;2023-07-28T20:19:47;24.50;99.10
2957;DHT22;1488;51.548;7.222;2023-07-28T20:22:14;24.50;99.10
2957;DHT22;1488;51.548;7.222;2023-07-28T20:24:41;24.50;99.10
2957;DHT22;1488;51.548;7.222;2023-07-28T20:27:09;24.50;99.20
2957;DHT22;1488;51.548;7.222;2023-07-28T20:29:36;24.50;99.30
2957;DHT22;1488;51.548;7.222;2023-07-28T20:32:03;24.50;99.20
2957;DHT22;1488;51.548;7.222;2023-07-28T20:34:33;24.60;99.40
2957;DHT22;1488;51.548;7.222;2023-07-28T20:37:00;24.50;99.30
2957;DHT22;1488;51.548;7.222;2023-07-28T20:39:27;24.50;99.40
2957;DHT22;1488;51.548;7.222;2023-07-28T20:41:54;24.50;99.40
2957;DHT22;1488;51.548;7.222;2023-07-28T20:44:22;24.50;99.60
2957;DHT22;1488;51.548;7.222;2023-07-28T20:46:49;24.60;99.40
2957;DHT22;1488;51.548;7.222;2023-07-28T20:49:16;24.60;99.40
2957;DHT22;1488;51.548;7.222;2023-07-28T20:51:44;24.50;99.30
2957;DHT22;1488;51.548;7.222;2023-07-28T20:54:11;24.50;99.30
2957;DHT22;1488;51.548;7.222;2023-07-28T20:56:38;24.50;99.70
2957;DHT22;1488;51.548;7.222;2023-07-28T20:59:08;24.50;99.40